• Join FlightAware (Why Join?)
  • Login
  • US Flag 
05:30AM EDT


 

Airport Tracker/Info


-or-


 

Live Flight TrackerFlight Track Log ✈ FSR103 ✈ 25-Jun-2013 ✈ KTEB - KBOS

Flight Track Log - Related Links

Times and Time Zones

All times are in EDT time to prevent confusion due to time zone crossing. See the FSR103 flight status page for this flight to view local times or setup timezone preferences in your user account.

Time Position Orientation Groundspeed Altitude Reporting Facility
EDT Latitude Longitude Course Direction KTS MPH feet Rate Location/Type
08:32PM 40.8167 -74.1167 55° Northeast 190 219 1,500  Level New York TRACON
08:33PM 40.8167 -74.2000 270° West 239 275 3,600 2,160 Climbing New York TRACON
08:34PM 40.8667 -74.2500 323° Northwest 260 299 5,900 1,200 Climbing New York TRACON
08:35PM 40.9333 -74.2167 21° North 272 313 6,000  Climbing New York TRACON
08:36PM 41.0000 -74.1833 21° North 271 312 6,000  Level New York TRACON
08:37PM 41.0833 -74.1667 North 268 308 6,000 1,320 Level New York TRACON
08:38PM 41.1550 -73.4694 55° Northeast  Level Estimated
08:39PM 41.1692 -74.0892 34° Northeast 286 329 9,500  Level Boston Center
08:40PM 41.2003 -73.9519 73° East 314 361 12,100 2,460 Climbing Boston Center
08:41PM 41.2311 -73.8203 73° East 383 441 14,500 1,500 Climbing Boston Center
08:42PM 41.2686 -73.6525 73° East 424 488 15,100 300 Climbing Boston Center
08:43PM 41.2992 -73.5147 74° East 431 496 15,100 -60 Level Boston Center
08:44PM 41.3358 -73.3469 74° East 431 496 15,000  Descending Boston Center
08:45PM 41.3661 -73.2117 73° East 426 490 15,100  Climbing Boston Center
08:46PM 41.4006 -73.0406 75° East 426 490 15,100  Level Boston Center
08:47PM 41.4283 -72.9081 74° East 426 490 15,100  Level Boston Center
08:48PM 41.4622 -72.7392 75° East 421 484 15,100  Level Boston Center
08:49PM 41.4917 -72.6008 74° East 421 484 15,100  Level Boston Center
08:50PM 41.5250 -72.4344 75° East 421 484 15,100  Level Boston Center
08:51PM 41.5542 -72.2986 74° East 416 479 15,100 -480 Level Boston Center
08:52PM 41.5872 -72.1292 75° East 411 473 14,200 -1,440 Descending Boston Center
08:53PM 41.6117 -72.0069 75° East 392 451 12,300 -1,080 Descending Boston Center
08:54PM 41.6403 -71.8622 75° East 373 429 12,100 -120 Descending Boston Center
08:55PM 41.6706 -71.7064 75° East 355 409 12,100 -120 Level Boston Center
08:56PM 41.6928 -71.5950 75° East 350 403 11,900 -540 Descending Boston Center
08:57PM 41.7208 -71.4556 75° East 355 409 11,100 -420 Descending Boston Center
08:58PM 41.7575 -71.3519 65° Northeast 344 396 11,100  Level Boston Center
08:59PM 41.8083 -71.2342 60° Northeast 337 388 11,100  Level Boston Center
09:00PM 41.8531 -71.1300 60° Northeast 347 399 11,100 -180 Level Boston Center
09:01PM 41.8833 -71.0500 63° Northeast 353 406 10,900 -180 Descending KA90
09:02PM 41.9333 -70.9333 60° Northeast 347 399 10,900 -120 Level KA90
09:03PM 41.9833 -70.8167 60° Northeast 354 407 10,700 -900 Descending KA90
09:04PM 42.0333 -70.7167 56° Northeast 315 362 9,200 -1,740 Descending KA90
09:05PM 42.0833 -70.6500 45° Northeast 309 356 7,500 -1,860 Descending KA90
09:05PM 42.1189 -70.6181 34° Northeast 306 352 6,600 -1,740 Descending Boston Center
09:06PM 42.1981 -70.6072 North 274 315 4,900 -1,380 Descending Boston Center
09:07PM 42.2711 -70.6247 350° North 260 299 3,900 -1,020 Descending Boston Center
09:08PM 42.3383 -70.6536 342° North 249 287 2,900 -540 Descending Boston Center
09:09PM 42.3908 -70.6775 341° North 225 259 2,900  Level Boston Center
09:10PM 42.4064 -70.7361 290° West 159 183 2,900 -60 Level Boston Center
09:11PM 42.3989 -70.7925 260° West 138 159 2,800 -540 Descending Boston Center
09:14PM 42.3667 -70.9167 251° West 121 139 1,100 -720 Descending KA90
09:15PM 42.3667 -70.9500 270° West 120 138 500 -600 Descending KA90
09:17PM 42.3500 -71.0000 North  Level FlightAware Approximate